Time;durP1;ratioP1;P1;durP2;ratioP2;P2;SDS_P1;SDS_P2;PMS_P1;PMS_P2;Temp;Humidity;BMP_temperature;BMP_pressure;BME280_temperature;BME280_humidity;BME280_pressure;Samples;Min_cycle;Max_cycle;Signal;HPM_P1;HPM_P2
2023/03/01 00:01:51;;;;;;;;;21.25;19.75;;;;;5.21;40.77;102297.59;4865790;29;45318;-70
2023/03/01 00:04:17;;;;;;;;;26.00;22.75;;;;;5.16;40.21;102283.41;4865787;29;47861;-70
2023/03/01 00:06:45;;;;;;;;;20.75;20.75;;;;;5.10;40.48;102288.63;4865762;29;45489;-70
2023/03/01 00:09:11;;;;;;;;;24.25;21.00;;;;;5.09;40.68;102293.00;4868826;29;45536;-71
2023/03/01 00:11:37;;;;;;;;;14.00;14.00;;;;;4.80;40.57;102240.53;4876575;29;45818;-70
2023/03/01 00:14:06;;;;;;;;;21.50;21.00;;;;;4.79;41.02;102244.06;4865583;29;45417;-70
2023/03/01 00:16:41;;;;;;;;;25.25;22.00;;;;;4.91;41.35;102263.63;4863487;29;45677;-71
2023/03/01 00:19:13;;;;;;;;;21.25;18.50;;;;;5.11;40.97;102307.19;4865499;29;45614;-71
2023/03/01 00:21:39;;;;;;;;;24.00;19.00;;;;;4.91;40.58;102284.78;4874979;29;45663;-71
2023/03/01 00:24:05;;;;;;;;;29.25;18.75;;;;;4.76;41.52;102258.97;4879704;29;47327;-71
2023/03/01 00:26:30;;;;;;;;;20.75;20.75;;;;;4.75;41.03;102258.09;4882944;29;45341;-70
2023/03/01 00:28:58;;;;;;;;;22.50;20.75;;;;;4.76;41.14;102261.63;4868481;29;45514;-70
2023/03/01 00:31:26;;;;;;;;;19.75;18.25;;;;;5.01;41.32;102287.59;4864283;29;45447;-71
2023/03/01 00:33:57;;;;;;;;;24.00;17.50;;;;;4.82;41.14;102259.06;4868677;29;45736;-71
2023/03/01 00:36:27;;;;;;;;;20.50;16.00;;;;;4.91;41.58;102261.88;4877459;29;45828;-71
2023/03/01 00:38:53;;;;;;;;;22.00;16.50;;;;;4.95;41.34;102263.69;4878571;29;45507;-71
2023/03/01 00:41:19;;;;;;;;;17.75;16.50;;;;;4.90;41.72;102257.44;4878220;29;45398;-71
2023/03/01 00:43:45;;;;;;;;;17.75;16.00;;;;;5.05;41.42;102283.25;4865415;29;46507;-71
2023/03/01 00:46:14;;;;;;;;;16.25;16.25;;;;;4.93;41.21;102272.50;4874372;29;45350;-71
2023/03/01 00:48:39;;;;;;;;;20.50;19.00;;;;;5.09;41.07;102300.94;4880297;29;45304;-70
2023/03/01 00:51:20;;;;;;;;;24.75;18.00;;;;;4.89;41.64;102265.34;4883492;29;45799;-70
2023/03/01 00:53:46;;;;;;;;;19.25;17.50;;;;;4.76;41.68;102244.00;4883942;29;45705;-71
2023/03/01 00:56:14;;;;;;;;;17.75;16.75;;;;;5.04;41.17;102315.88;4870546;29;45391;-71
2023/03/01 00:58:40;;;;;;;;;20.75;17.75;;;;;4.72;41.67;102258.03;4873494;29;45582;-71
2023/03/01 01:01:16;;;;;;;;;22.00;17.75;;;;;4.63;41.19;102258.78;4871789;29;45482;-71
2023/03/01 01:03:51;;;;;;;;;19.75;17.75;;;;;4.79;41.20;102296.06;4874904;29;45502;-70
2023/03/01 01:06:20;;;;;;;;;20.25;18.00;;;;;4.48;42.05;102254.97;4863496;29;45452;-71
2023/03/01 01:08:46;;;;;;;;;17.75;17.25;;;;;4.61;42.10;102259.59;4865750;29;45773;-70
2023/03/01 01:11:12;;;;;;;;;23.25;20.25;;;;;4.50;41.78;102250.63;4867205;29;45269;-70
2023/03/01 01:13:39;;;;;;;;;19.25;16.75;;;;;4.54;41.52;102273.59;4863505;29;48374;-71
2023/03/01 01:16:05;;;;;;;;;24.75;19.25;;;;;4.67;42.36;102285.28;4864745;29;45475;-71
2023/03/01 01:18:31;;;;;;;;;20.75;20.00;;;;;4.47;41.96;102240.88;4863270;29;45335;-71
2023/03/01 01:20:56;;;;;;;;;25.25;21.00;;;;;4.49;42.11;102246.19;4878238;29;45455;-71
2023/03/01 01:23:22;;;;;;;;;27.00;21.75;;;;;4.54;42.00;102255.97;4864806;29;45592;-71
2023/03/01 01:25:47;;;;;;;;;22.00;19.75;;;;;4.41;41.97;102239.03;4867392;29;45430;-71
2023/03/01 01:28:12;;;;;;;;;22.50;20.75;;;;;4.78;42.30;102304.88;4872690;29;45448;-71
2023/03/01 01:30:38;;;;;;;;;18.75;17.75;;;;;4.54;42.00;102249.78;4865605;29;46153;-71
2023/03/01 01:33:03;;;;;;;;;22.50;21.25;;;;;4.52;41.73;102263.00;4880662;29;45528;-71
2023/03/01 01:35:29;;;;;;;;;28.75;26.00;;;;;4.57;42.37;102253.38;4878786;29;45432;-71
2023/03/01 01:37:54;;;;;;;;;27.00;18.00;;;;;4.47;42.69;102226.78;4864876;29;45441;-71
2023/03/01 01:40:19;;;;;;;;;23.50;19.50;;;;;4.82;42.38;102289.06;4865573;29;45510;-71
2023/03/01 01:42:45;;;;;;;;;22.00;19.75;;;;;4.72;42.50;102270.38;4864688;29;46173;-70
2023/03/01 01:45:35;;;;;;;;;22.00;21.00;;;;;4.65;42.09;102261.44;4864541;29;45376;-71
2023/03/01 01:48:06;;;;;;;;;20.25;19.75;;;;;4.74;42.09;102285.41;4864340;29;45419;-71
2023/03/01 01:50:38;;;;;;;;;21.00;19.25;;;;;4.53;41.84;102250.69;4864680;29;45262;-71
2023/03/01 01:53:10;;;;;;;;;23.00;16.00;;;;;4.14;41.76;102198.88;4865065;29;46383;-71
2023/03/01 01:55:40;;;;;;;;;17.50;16.00;;;;;4.48;42.41;102258.53;4866168;29;45408;-71
2023/03/01 01:58:09;;;;;;;;;21.25;19.25;;;;;4.23;42.25;102214.91;4868190;29;45323;-70
2023/03/01 02:00:37;;;;;;;;;20.50;15.75;;;;;4.17;42.41;102207.75;4862706;29;45794;-70
2023/03/01 02:03:08;;;;;;;;;18.00;16.00;;;;;4.46;41.98;102262.91;4879140;29;45687;-70
2023/03/01 02:05:45;;;;;;;;;19.25;15.00;;;;;4.45;42.44;102256.72;4864364;29;46144;-71
2023/03/01 02:08:13;;;;;;;;;24.00;19.75;;;;;4.17;42.28;102210.41;4868873;29;45686;-71
2023/03/01 02:10:40;;;;;;;;;22.50;20.75;;;;;4.49;42.53;102267.34;4869495;29;45519;-71
2023/03/01 02:13:06;;;;;;;;;18.25;17.25;;;;;4.17;42.59;102207.75;4862844;29;48629;-71
2023/03/01 02:15:33;;;;;;;;;18.25;17.25;;;;;4.26;43.31;102214.97;4864060;29;45306;-71
2023/03/01 02:18:00;;;;;;;;;16.75;15.75;;;;;4.06;43.29;102178.50;4868870;29;45392;-70
2023/03/01 02:20:38;;;;;;;;;22.50;20.25;;;;;4.59;42.89;102259.59;4873566;29;45471;-71
2023/03/01 02:23:03;;;;;;;;;12.25;9.50;;;;;4.40;42.23;102215.19;4871312;29;47967;-71
2023/03/01 02:25:56;;;;;;;;;24.75;20.25;;;;;4.69;42.93;102247.41;4866943;29;45710;-71
2023/03/01 02:28:37;;;;;;;;;20.25;17.50;;;;;4.61;43.41;102239.34;4858056;29;45447;-71
2023/03/01 02:33:51;;;;;;;;;24.50;18.75;;;;;4.40;42.88;102181.72;4863668;29;45325;-71
2023/03/01 02:36:21;;;;;;;;;19.00;17.00;;;;;4.56;42.57;102200.47;4863971;29;45634;-71
2023/03/01 02:38:49;;;;;;;;;21.00;18.25;;;;;4.87;43.09;102248.56;4865383;29;45353;-71
2023/03/01 02:41:17;;;;;;;;;19.25;18.00;;;;;4.56;42.90;102187.22;4884553;29;45332;-71
2023/03/01 02:43:43;;;;;;;;;23.75;19.50;;;;;4.69;43.18;102206.84;4877274;29;45417;-71
2023/03/01 02:46:17;;;;;;;;;20.50;19.00;;;;;4.41;43.21;102167.63;4865578;29;46051;-71
2023/03/01 02:48:49;;;;;;;;;19.75;14.00;;;;;4.37;42.85;102157.84;4886535;29;45643;-70
2023/03/01 02:51:34;;;;;;;;;15.00;15.00;;;;;4.74;42.84;102239.53;4872771;29;45551;-70
2023/03/01 02:54:21;;;;;;;;;23.50;19.00;;;;;4.66;43.12;102231.50;4866927;29;46614;-71
2023/03/01 02:56:50;;;;;;;;;24.50;17.50;;;;;4.24;42.94;102166.47;4875039;29;45699;-71
2023/03/01 02:59:22;;;;;;;;;13.25;13.25;;;;;4.60;43.70;102221.69;4868063;29;45406;-71
2023/03/01 03:01:47;;;;;;;;;19.75;17.75;;;;;4.37;43.28;102183.41;4866431;29;45673;-71
2023/03/01 03:04:17;;;;;;;;;22.00;18.50;;;;;4.36;42.63;102179.91;4870518;29;45440;-70
2023/03/01 03:06:47;;;;;;;;;20.75;20.00;;;;;4.39;43.23;102177.31;4883409;29;45334;-70
2023/03/01 03:09:13;;;;;;;;;22.75;18.75;;;;;4.36;43.83;102177.25;4870968;29;45559;-70
2023/03/01 03:11:40;;;;;;;;;21.50;21.00;;;;;4.33;43.56;102160.44;4866677;29;45390;-70
2023/03/01 03:14:12;;;;;;;;;23.00;20.50;;;;;4.58;43.10;102193.47;4866585;29;45497;-70
2023/03/01 03:16:40;;;;;;;;;18.75;17.25;;;;;4.37;43.08;102163.16;4865196;29;45442;-71
2023/03/01 03:19:05;;;;;;;;;24.00;20.75;;;;;4.15;42.94;102124.03;4872725;29;45377;-71
2023/03/01 03:21:34;;;;;;;;;21.00;17.00;;;;;4.29;43.36;102148.03;4881614;29;45854;-70
2023/03/01 03:23:59;;;;;;;;;23.50;16.75;;;;;4.34;43.50;102155.16;4882528;29;46162;-70
2023/03/01 03:26:25;;;;;;;;;19.25;18.25;;;;;4.34;43.27;102157.81;4864659;29;45422;-70
2023/03/01 03:28:50;;;;;;;;;17.00;14.00;;;;;4.25;43.79;102147.09;4870584;29;45498;-71
2023/03/01 03:31:16;;;;;;;;;20.75;18.50;;;;;4.33;42.89;102163.09;4866516;29;45425;-70
2023/03/01 03:33:42;;;;;;;;;29.75;23.75;;;;;4.37;43.77;102170.19;4873175;29;45810;-70
2023/03/01 03:36:12;;;;;;;;;21.50;18.50;;;;;4.60;43.75;102204.94;4866117;29;45454;-70
2023/03/01 03:38:39;;;;;;;;;21.25;18.50;;;;;4.26;44.12;102138.31;4894367;29;45347;-70
2023/03/01 03:41:08;;;;;;;;;25.75;24.00;;;;;4.19;43.06;102150.53;4882516;29;45525;-71
2023/03/01 03:43:36;;;;;;;;;24.75;21.25;;;;;4.20;44.22;102154.06;4869109;29;45491;-70
2023/03/01 03:46:06;;;;;;;;;22.75;20.50;;;;;4.21;43.81;102163.75;4874630;29;45890;-70
2023/03/01 03:48:39;;;;;;;;;23.50;19.50;;;;;4.49;44.31;102202.13;4883561;29;45387;-70
2023/03/01 03:51:05;;;;;;;;;24.00;17.25;;;;;4.48;44.31;102191.50;4872028;29;45610;-70
2023/03/01 03:53:31;;;;;;;;;23.75;21.00;;;;;4.39;44.15;102179.94;4866857;29;45631;-70
2023/03/01 03:55:57;;;;;;;;;23.25;19.75;;;;;4.27;44.54;102171.78;4864670;29;45437;-70
2023/03/01 03:58:25;;;;;;;;;22.75;20.50;;;;;4.50;44.08;102192.44;4874085;29;45488;-70
2023/03/01 04:00:55;;;;;;;;;20.75;20.75;;;;;4.25;43.90;102155.91;4877696;29;45454;-70
2023/03/01 04:03:21;;;;;;;;;28.00;23.00;;;;;4.22;43.38;102149.69;4877698;29;45516;-70
2023/03/01 04:05:49;;;;;;;;;26.25;24.50;;;;;4.23;43.38;102167.34;4866028;29;45823;-70
2023/03/01 04:08:15;;;;;;;;;27.50;22.25;;;;;4.11;44.12;102154.81;4865709;29;45465;-70
2023/03/01 04:10:44;;;;;;;;;24.00;20.00;;;;;4.19;44.07;102171.69;4866754;29;45307;-70
2023/03/01 04:13:12;;;;;;;;;26.00;23.50;;;;;4.37;44.30;102197.50;4881931;29;46503;-70
2023/03/01 04:15:38;;;;;;;;;27.25;23.50;;;;;4.14;44.18;102160.13;4883211;29;45934;-70
2023/03/01 04:18:05;;;;;;;;;20.75;19.25;;;;;4.03;44.14;102146.75;4865762;29;45458;-70
2023/03/01 04:20:34;;;;;;;;;28.00;22.25;;;;;4.01;44.27;102164.31;4879092;29;45532;-70
2023/03/01 04:23:13;;;;;;;;;29.50;24.00;;;;;4.23;44.86;102184.06;4881894;29;46939;-70
2023/03/01 04:25:58;;;;;;;;;19.00;16.00;;;;;4.11;44.46;102162.75;4878978;29;45422;-71
2023/03/01 04:28:29;;;;;;;;;24.00;22.00;;;;;4.34;44.44;102205.41;4865829;29;45498;-71
2023/03/01 04:30:56;;;;;;;;;24.75;23.25;;;;;4.18;44.44;102159.31;4865641;29;45334;-71
2023/03/01 04:33:23;;;;;;;;;20.00;17.00;;;;;4.41;44.78;102198.44;4869337;29;47101;-70
2023/03/01 04:35:49;;;;;;;;;25.75;23.00;;;;;4.19;44.07;102144.34;4864216;29;45866;-71
2023/03/01 04:38:14;;;;;;;;;25.00;23.25;;;;;4.10;44.54;102141.56;4865407;29;45419;-71
2023/03/01 04:40:42;;;;;;;;;30.50;24.50;;;;;4.43;44.82;102186.16;4864101;29;45620;-71
2023/03/01 04:43:09;;;;;;;;;28.25;25.00;;;;;4.14;44.49;102151.31;4865361;29;45599;-71
2023/03/01 04:45:34;;;;;;;;;23.25;18.75;;;;;4.07;44.82;102130.06;4876099;29;45262;-71
2023/03/01 04:48:00;;;;;;;;;21.00;21.00;;;;;4.34;44.15;102175.44;4866902;29;45576;-71
2023/03/01 04:50:26;;;;;;;;;25.25;18.50;;;;;4.04;44.56;102150.25;4889459;29;45891;-71
2023/03/01 04:52:51;;;;;;;;;27.00;24.50;;;;;4.24;44.58;102177.94;4875963;29;47118;-71
2023/03/01 04:55:17;;;;;;;;;20.50;20.25;;;;;3.81;44.52;102107.59;4877084;29;45821;-70
2023/03/01 04:57:43;;;;;;;;;23.50;20.00;;;;;3.95;44.54;102137.78;4869491;29;45484;-71
2023/03/01 05:00:21;;;;;;;;;27.00;22.25;;;;;4.11;44.50;102154.81;4863695;29;45555;-71
2023/03/01 05:02:48;;;;;;;;;24.75;23.50;;;;;4.19;44.82;102182.25;4865866;29;45510;-71
2023/03/01 05:05:15;;;;;;;;;25.00;21.25;;;;;3.90;44.91;102123.63;4863382;29;45729;-71
2023/03/01 05:07:40;;;;;;;;;27.25;23.75;;;;;4.20;44.86;102184.03;4866636;29;45467;-71
2023/03/01 05:10:06;;;;;;;;;29.75;28.50;;;;;3.83;45.30;102108.53;4873814;29;45474;-71
2023/03/01 05:12:31;;;;;;;;;24.50;18.75;;;;;3.96;45.41;102134.28;4864640;29;47544;-71
2023/03/01 05:14:58;;;;;;;;;23.75;20.50;;;;;3.90;45.11;102116.56;4870352;29;45405;-71
2023/03/01 05:17:23;;;;;;;;;27.00;21.75;;;;;3.94;45.17;102117.50;4881061;29;45414;-71
2023/03/01 05:19:49;;;;;;;;;22.75;19.25;;;;;4.20;45.38;102165.53;4874900;29;45731;-71
2023/03/01 05:22:15;;;;;;;;;26.75;23.75;;;;;3.94;45.00;102116.63;4876282;29;47751;-71
2023/03/01 05:24:40;;;;;;;;;23.75;23.25;;;;;4.02;44.67;102129.09;4863470;29;45529;-71
2023/03/01 05:27:06;;;;;;;;;30.50;27.50;;;;;3.95;45.30;102119.28;4863358;29;45697;-71
2023/03/01 05:29:34;;;;;;;;;30.75;26.50;;;;;4.03;45.17;102136.16;4879646;29;45504;-71
2023/03/01 05:32:02;;;;;;;;;24.25;21.50;;;;;3.97;45.46;102136.06;4864279;29;45381;-71
2023/03/01 05:34:30;;;;;;;;;25.25;22.50;;;;;3.96;45.26;102136.03;4882868;29;45907;-71
2023/03/01 05:36:56;;;;;;;;;25.50;21.00;;;;;4.08;45.71;102146.81;4867323;29;45353;-71
2023/03/01 05:39:26;;;;;;;;;25.25;24.00;;;;;3.92;45.13;102129.81;4864721;29;45574;-71
2023/03/01 05:41:53;;;;;;;;;15.75;12.75;;;;;3.92;45.61;102127.16;4864291;29;47219;-71
2023/03/01 05:44:20;;;;;;;;;23.50;19.25;;;;;4.11;45.67;102167.13;4867797;29;45789;-71
2023/03/01 05:46:45;;;;;;;;;24.25;22.50;;;;;3.97;45.21;102156.31;4868058;29;45549;-71
2023/03/01 05:49:13;;;;;;;;;27.00;24.25;;;;;4.00;45.03;102151.09;4877207;29;45500;-71
2023/03/01 05:51:39;;;;;;;;;25.50;22.00;;;;;3.65;45.15;102106.44;4866519;29;47257;-70
2023/03/01 05:54:05;;;;;;;;;27.25;24.00;;;;;3.61;45.00;102109.88;4874253;29;45404;-70
2023/03/01 05:56:33;;;;;;;;;29.50;23.00;;;;;3.81;45.69;102140.19;4865177;29;45468;-70
2023/03/01 05:58:58;;;;;;;;;32.25;27.50;;;;;3.50;45.48;102092.09;4864450;29;45437;-70
2023/03/01 06:01:24;;;;;;;;;23.50;22.00;;;;;3.62;45.62;102117.81;4864102;29;45322;-70
2023/03/01 06:03:49;;;;;;;;;27.25;23.00;;;;;3.75;45.69;102134.78;4863930;29;45402;-71
2023/03/01 06:06:15;;;;;;;;;27.00;23.50;;;;;3.75;46.35;102126.88;4867387;29;45469;-71
2023/03/01 06:08:40;;;;;;;;;31.25;28.50;;;;;3.66;46.16;102117.03;4881271;29;45335;-71
2023/03/01 06:11:06;;;;;;;;;28.25;25.00;;;;;3.75;45.88;102126.00;4879906;29;45341;-71
2023/03/01 06:13:32;;;;;;;;;24.75;23.50;;;;;4.01;45.65;102163.41;4865610;29;45533;-71
2023/03/01 06:15:58;;;;;;;;;26.50;23.75;;;;;3.91;45.55;102143.91;4867523;29;45395;-71
2023/03/01 06:18:23;;;;;;;;;24.25;23.25;;;;;3.70;45.94;102108.28;4871777;29;45413;-71
2023/03/01 06:20:56;;;;;;;;;24.75;22.25;;;;;3.70;46.17;102104.78;4879867;29;45317;-71
2023/03/01 06:23:23;;;;;;;;;34.00;29.25;;;;;3.65;45.76;102086.19;4886182;29;45739;-71
2023/03/01 06:25:48;;;;;;;;;31.50;25.25;;;;;3.76;46.23;102118.09;4875381;29;45380;-70
2023/03/01 06:28:13;;;;;;;;;30.50;27.75;;;;;3.90;45.70;102145.63;4886052;29;45384;-71
2023/03/01 06:30:39;;;;;;;;;30.00;26.75;;;;;3.80;45.92;102126.97;4870905;29;45443;-71
2023/03/01 06:33:04;;;;;;;;;41.25;31.50;;;;;3.80;46.20;102140.16;4885783;29;45352;-71
2023/03/01 06:35:30;;;;;;;;;35.75;30.75;;;;;3.46;46.35;102082.34;4883738;29;45369;-71
2023/03/01 06:37:58;;;;;;;;;30.25;27.25;;;;;3.50;46.88;102080.66;4883563;29;45534;-71
2023/03/01 06:40:23;;;;;;;;;32.50;30.50;;;;;3.44;46.33;102083.16;4866984;29;45500;-71
2023/03/01 06:51:46;;;;;;;;;30.50;28.25;;;;;3.71;47.00;102128.56;5547182;23;46833;-79
2023/03/01 06:54:12;;;;;;;;;31.00;28.75;;;;;3.60;47.00;102108.13;4896416;28;45530;-80
2023/03/01 06:56:37;;;;;;;;;39.25;32.00;;;;;3.71;47.18;102130.34;4888663;29;45529;-80
2023/03/01 06:59:03;;;;;;;;;37.75;29.75;;;;;3.49;47.24;102084.13;4897457;29;45232;-80
2023/03/01 07:01:29;;;;;;;;;32.25;29.00;;;;;3.66;46.43;102118.81;4883101;29;47315;-80
2023/03/01 07:03:54;;;;;;;;;34.50;30.50;;;;;3.75;47.16;102126.88;4897298;29;45367;-80
2023/03/01 07:06:20;;;;;;;;;31.50;30.75;;;;;3.65;46.75;102098.53;4903254;29;45348;-80
2023/03/01 07:08:45;;;;;;;;;35.25;30.75;;;;;3.71;47.22;102114.50;4897325;29;45384;-79
2023/03/01 07:11:10;;;;;;;;;35.00;31.50;;;;;3.67;46.91;102107.34;4899232;28;45485;-79
2023/03/01 07:13:36;;;;;;;;;34.00;31.50;;;;;3.65;47.13;102096.75;4903590;29;48203;-79
2023/03/01 07:16:01;;;;;;;;;34.50;31.25;;;;;3.59;47.46;102094.03;4893540;29;45407;-79
2023/03/01 07:18:27;;;;;;;;;42.00;34.25;;;;;3.55;47.54;102080.75;4895700;29;45494;-79
2023/03/01 07:20:52;;;;;;;;;38.25;33.75;;;;;3.59;47.17;102096.69;4891299;29;45430;-79
2023/03/01 07:23:17;;;;;;;;;41.00;36.00;;;;;3.72;47.38;102116.25;4868965;29;45384;-79
2023/03/01 07:25:43;;;;;;;;;38.75;33.00;;;;;3.49;47.14;102078.84;4885711;29;45412;-80
2023/03/01 07:28:08;;;;;;;;;35.75;33.00;;;;;3.64;47.07;102112.56;4872753;29;45598;-79
2023/03/01 07:30:33;;;;;;;;;39.25;35.75;;;;;3.52;47.92;102106.22;4900584;29;46400;-80
2023/03/01 07:32:59;;;;;;;;;39.00;33.75;;;;;3.54;47.45;102100.94;4902710;28;45207;-79
2023/03/01 07:35:27;;;;;;;;;42.50;33.75;;;;;3.46;47.72;102094.66;4892221;28;45474;-79
2023/03/01 07:37:53;;;;;;;;;44.25;33.50;;;;;3.43;47.92;102095.50;4882317;29;46228;-79
2023/03/01 07:40:19;;;;;;;;;30.75;29.50;;;;;3.64;47.57;102129.34;4869396;29;46387;-79
2023/03/01 07:42:45;;;;;;;;;40.75;31.75;;;;;3.58;47.35;102117.78;4902369;29;45676;-78
2023/03/01 07:45:10;;;;;;;;;34.00;30.75;;;;;3.56;47.82;102114.19;4899837;29;45276;-78
2023/03/01 07:47:36;;;;;;;;;38.75;33.00;;;;;3.47;47.12;102104.34;4870522;29;45778;-78
2023/03/01 07:50:02;;;;;;;;;45.75;39.75;;;;;3.48;47.52;102103.50;4896193;29;46401;-78
2023/03/01 07:52:28;;;;;;;;;36.50;33.50;;;;;3.55;47.57;102115.06;4898173;28;45307;-78
2023/03/01 07:54:53;;;;;;;;;37.25;34.75;;;;;3.56;48.19;102120.38;4879375;29;45567;-78
2023/03/01 07:57:18;;;;;;;;;38.25;34.75;;;;;3.47;48.04;102096.44;4890191;29;45546;-78
2023/03/01 07:59:44;;;;;;;;;41.00;33.25;;;;;3.44;47.99;102086.72;4879378;29;48511;-77
2023/03/01 08:02:10;;;;;;;;;40.00;37.50;;;;;3.46;47.26;102103.47;4878566;29;45673;-78
2023/03/01 08:04:35;;;;;;;;;38.75;34.00;;;;;3.49;47.56;102118.47;4895599;29;47026;-78
2023/03/01 08:07:01;;;;;;;;;43.25;38.00;;;;;3.44;48.44;102113.13;4878682;29;46132;-77
2023/03/01 08:09:26;;;;;;;;;45.75;38.75;;;;;3.38;47.94;102104.19;4878956;29;47953;-78
2023/03/01 08:11:52;;;;;;;;;49.75;38.25;;;;;3.38;48.10;102099.78;4875727;29;45778;-78
2023/03/01 08:14:17;;;;;;;;;30.50;25.50;;;;;3.44;48.67;102105.19;4890189;28;45506;-78
2023/03/01 08:16:43;;;;;;;;;38.00;37.00;;;;;3.54;48.15;102114.16;4873820;29;45770;-78
2023/03/01 08:19:11;;;;;;;;;51.00;40.50;;;;;3.59;48.22;102120.44;4887572;29;45361;-78
2023/03/01 08:21:37;;;;;;;;;40.50;34.25;;;;;3.67;48.41;102115.28;4893549;29;45844;-78
2023/03/01 08:24:06;;;;;;;;;38.25;32.25;;;;;3.62;48.56;102090.53;4896443;29;45618;-79
2023/03/01 08:26:32;;;;;;;;;43.50;38.00;;;;;3.81;48.32;102104.94;4884407;29;45411;-78
2023/03/01 08:28:59;;;;;;;;;34.75;31.75;;;;;3.92;48.55;102102.50;4891969;29;45578;-78
2023/03/01 08:31:32;;;;;;;;;46.50;37.00;;;;;3.98;48.30;102111.44;4891659;29;45485;-78
2023/03/01 08:34:00;;;;;;;;;44.00;38.25;;;;;3.94;48.21;102082.28;4885268;29;46470;-79
2023/03/01 08:36:29;;;;;;;;;39.25;36.00;;;;;4.10;47.86;102110.75;4879198;29;45439;-79
2023/03/01 08:38:54;;;;;;;;;39.75;38.25;;;;;4.08;47.61;102093.97;4885763;29;45508;-79
2023/03/01 08:41:21;;;;;;;;;45.00;39.75;;;;;4.06;47.71;102091.31;4881193;29;46571;-78
2023/03/01 08:43:46;;;;;;;;;36.00;33.00;;;;;4.11;47.72;102087.84;4896714;29;45514;-78
2023/03/01 08:46:12;;;;;;;;;44.50;39.25;;;;;4.21;48.35;102095.03;4884464;29;46016;-78
2023/03/01 08:48:38;;;;;;;;;47.50;39.25;;;;;4.01;47.68;102058.63;4876777;28;48195;-78
2023/03/01 08:51:12;;;;;;;;;44.25;41.25;;;;;4.22;47.98;102088.91;4876703;29;45481;-78
2023/03/01 08:53:37;;;;;;;;;51.50;42.50;;;;;4.23;47.96;102086.28;4906354;28;45494;-78
2023/03/01 08:56:04;;;;;;;;;37.25;35.25;;;;;4.27;47.47;102097.78;4892610;28;45869;-78
2023/03/01 08:58:30;;;;;;;;;44.25;38.50;;;;;4.22;47.97;102076.56;4916097;28;46775;-79
2023/03/01 09:00:58;;;;;;;;;45.00;37.25;;;;;4.21;47.11;102050.09;4909379;28;45892;-78
2023/03/01 09:03:24;;;;;;;;;48.50;37.50;;;;;4.43;47.36;102081.28;4913130;28;45536;-77
2023/03/01 09:05:50;;;;;;;;;38.25;34.25;;;;;4.26;47.73;102040.50;4902781;28;46284;-77
2023/03/01 09:08:19;;;;;;;;;37.00;35.75;;;;;4.42;47.15;102066.28;4894726;28;47134;-76
2023/03/01 09:10:45;;;;;;;;;45.50;37.25;;;;;4.43;47.80;102052.19;4918559;28;45462;-78
2023/03/01 09:13:11;;;;;;;;;38.50;35.25;;;;;4.54;47.29;102060.28;4898430;28;45516;-85
2023/03/01 09:15:37;;;;;;;;;46.75;38.00;;;;;4.60;46.70;102064.78;4913834;28;45270;-83
2023/03/01 09:18:03;;;;;;;;;41.00;38.50;;;;;4.58;47.09;102043.59;4894782;28;47204;-82
2023/03/01 09:20:31;;;;;;;;;41.25;38.50;;;;;4.72;46.70;102054.34;4910734;28;45744;-82
2023/03/01 09:22:57;;;;;;;;;39.25;35.25;;;;;4.67;47.78;102032.25;4904849;28;45678;-82
2023/03/01 09:25:22;;;;;;;;;41.75;39.00;;;;;4.77;46.61;102042.06;4885438;29;45523;-82
2023/03/01 09:27:51;;;;;;;;;43.00;38.75;;;;;4.70;47.07;102023.47;4909334;28;46190;-82
2023/03/01 09:30:16;;;;;;;;;45.00;38.50;;;;;4.83;47.00;102039.50;4906385;28;45500;-84
2023/03/01 09:32:42;;;;;;;;;46.50;36.00;;;;;4.81;46.92;102022.72;4896281;28;45631;-84
2023/03/01 09:35:08;;;;;;;;;46.00;39.75;;;;;4.97;46.25;102044.06;4890938;28;45589;-84
2023/03/01 09:37:35;;;;;;;;;50.25;41.25;;;;;4.95;46.36;102046.69;4910214;28;45493;-81
2023/03/01 09:40:01;;;;;;;;;43.25;36.75;;;;;4.81;47.41;102025.38;4913827;28;45460;-82
2023/03/01 09:42:30;;;;;;;;;51.25;42.25;;;;;4.86;46.56;102040.41;4911780;28;45353;-81
2023/03/01 09:45:04;;;;;;;;;40.75;36.25;;;;;4.54;46.47;101988.88;4889312;28;45676;-82
2023/03/01 09:47:32;;;;;;;;;49.50;41.75;;;;;4.63;46.81;102004.88;4898690;28;48463;-81
2023/03/01 09:50:16;;;;;;;;;40.50;38.25;;;;;4.69;46.85;101998.75;4916221;28;45468;-86
2023/03/01 09:53:09;;;;;;;;;35.00;31.75;;;;;4.95;46.27;102025.53;4902304;28;45370;-85
2023/03/01 09:55:50;;;;;;;;;37.50;33.00;;;;;4.78;46.67;101985.66;4919170;28;45309;-83
2023/03/01 09:58:41;;;;;;;;;41.75;37.75;;;;;5.06;46.35;102023.00;4918001;28;46159;-82
2023/03/01 10:01:48;;;;;;;;;39.50;37.50;;;;;5.11;47.00;102021.31;4895264;28;45440;-82
2023/03/01 10:04:26;;;;;;;;;51.00;39.25;;;;;5.02;46.31;101992.06;4918527;28;45734;-82
2023/03/01 10:07:10;;;;;;;;;37.75;37.25;;;;;5.01;46.40;101990.28;4924761;28;45468;-83
2023/03/01 10:09:44;;;;;;;;;38.50;34.25;;;;;5.18;46.62;102009.03;4904011;28;47101;-82
2023/03/01 10:12:18;;;;;;;;;39.75;32.25;;;;;5.28;47.00;102009.97;4905719;28;46637;-81
2023/03/01 10:14:43;;;;;;;;;46.25;38.00;;;;;5.35;46.17;101996.81;4900092;28;45478;-81
2023/03/01 10:17:12;;;;;;;;;43.50;38.75;;;;;5.34;46.82;101980.91;4906864;28;45397;-87
2023/03/01 10:19:43;;;;;;;;;48.75;38.75;;;;;5.49;46.58;101996.06;4902393;28;49649;-86
2023/03/01 10:22:23;;;;;;;;;42.75;34.00;;;;;5.57;46.49;101989.06;4899698;28;45455;-81
2023/03/01 10:24:51;;;;;;;;;45.75;38.25;;;;;5.63;45.86;101991.78;4897300;28;45681;-81
2023/03/01 10:27:37;;;;;;;;;41.50;38.50;;;;;5.48;45.73;101957.19;4916530;28;45286;-82
2023/03/01 10:30:11;;;;;;;;;36.75;34.50;;;;;5.50;45.90;101963.41;4911585;28;46224;-82
2023/03/01 10:32:39;;;;;;;;;54.00;43.00;;;;;5.53;45.48;101968.69;4907979;28;45477;-82
2023/03/01 10:35:26;;;;;;;;;42.75;37.00;;;;;5.67;45.89;101984.72;4918925;28;45216;-78
2023/03/01 10:38:13;;;;;;;;;45.25;36.50;;;;;5.68;46.27;101973.25;4914234;28;45648;-81
2023/03/01 10:40:56;;;;;;;;;46.00;39.50;;;;;5.80;45.71;101977.75;4905780;28;47525;-82
2023/03/01 10:43:23;;;;;;;;;50.25;37.75;;;;;5.74;45.11;101960.03;4916922;28;45617;-82
2023/03/01 10:45:49;;;;;;;;;36.00;30.50;;;;;5.87;46.23;101983.09;4908287;28;45331;-82
2023/03/01 10:48:24;;;;;;;;;32.25;26.75;;;;;5.92;45.23;101984.03;4903432;28;45938;-82
2023/03/01 10:50:58;;;;;;;;;41.75;33.25;;;;;5.96;45.91;101979.66;4902004;28;47242;-83
2023/03/01 10:53:28;;;;;;;;;43.75;35.50;;;;;6.00;45.69;101980.56;4916051;28;45285;-82
2023/03/01 10:56:14;;;;;;;;;38.25;36.75;;;;;6.00;45.71;101965.56;4914087;28;45455;-79
2023/03/01 10:59:19;;;;;;;;;43.75;38.25;;;;;6.06;45.53;101972.66;4888240;28;45500;-79
2023/03/01 11:01:44;;;;;;;;;44.00;36.75;;;;;6.01;45.25;101971.75;4912048;28;45394;-79
2023/03/01 11:04:14;;;;;;;;;47.00;39.25;;;;;5.98;45.15;101963.75;4912097;28;45360;-78
2023/03/01 11:06:41;;;;;;;;;42.25;38.00;;;;;5.99;44.87;101963.78;4912778;28;45551;-79
2023/03/01 11:09:22;;;;;;;;;45.50;39.50;;;;;6.01;45.72;101967.31;4900137;28;45591;-79
2023/03/01 11:11:59;;;;;;;;;38.75;35.50;;;;;6.03;45.20;101967.31;4897307;28;47366;-79
2023/03/01 11:14:36;;;;;;;;;39.00;36.25;;;;;5.94;45.21;101933.69;4911840;28;45393;-79
2023/03/01 11:17:17;;;;;;;;;45.00;40.00;;;;;6.07;44.79;101943.50;4911873;28;45463;-78
2023/03/01 11:19:42;;;;;;;;;34.50;33.25;;;;;6.07;44.71;101932.91;4898069;28;45456;-79
2023/03/01 11:22:17;;;;;;;;;43.00;35.50;;;;;6.19;44.48;101961.25;4909099;28;45438;-79
2023/03/01 11:24:55;;;;;;;;;43.00;37.75;;;;;6.13;45.15;101940.00;4894830;28;45507;-79
2023/03/01 11:27:31;;;;;;;;;40.50;37.00;;;;;6.21;45.13;101943.56;4899126;28;45358;-79
2023/03/01 11:30:03;;;;;;;;;41.75;32.25;;;;;6.25;44.21;101955.97;4911524;28;45430;-78
2023/03/01 11:32:38;;;;;;;;;61.50;49.25;;;;;6.19;44.34;101941.81;4896723;28;47369;-78
2023/03/01 11:35:19;;;;;;;;;50.00;42.00;;;;;6.23;44.75;101935.63;4898261;28;45311;-78
2023/03/01 11:37:58;;;;;;;;;45.75;40.25;;;;;6.36;44.95;101941.88;4890855;28;45371;-79